sensor_id;sensor_type;location;lat;lon;timestamp;temperature;humidity
8537;DHT22;4306;50.210;10.628;2023-05-25T00:01:41;5.90;99.90
8537;DHT22;4306;50.210;10.628;2023-05-25T00:04:09;6.00;99.90
8537;DHT22;4306;50.210;10.628;2023-05-25T00:06:42;6.00;99.90
8537;DHT22;4306;50.210;10.628;2023-05-25T00:09:13;6.00;99.90
8537;DHT22;4306;50.210;10.628;2023-05-25T00:11:40;6.00;99.90
8537;DHT22;4306;50.210;10.628;2023-05-25T00:14:07;6.00;99.90
8537;DHT22;4306;50.210;10.628;2023-05-25T00:16:34;6.00;99.90
8537;DHT22;4306;50.210;10.628;2023-05-25T00:19:03;6.00;99.90
8537;DHT22;4306;50.210;10.628;2023-05-25T00:21:30;5.90;99.90
8537;DHT22;4306;50.210;10.628;2023-05-25T00:23:58;5.90;99.90
8537;DHT22;4306;50.210;10.628;2023-05-25T00:26:27;5.90;99.90
8537;DHT22;4306;50.210;10.628;2023-05-25T00:28:54;5.90;99.90
8537;DHT22;4306;50.210;10.628;2023-05-25T00:31:20;6.00;99.90
8537;DHT22;4306;50.210;10.628;2023-05-25T00:33:47;6.00;99.90
8537;DHT22;4306;50.210;10.628;2023-05-25T00:36:15;6.00;99.90
8537;DHT22;4306;50.210;10.628;2023-05-25T00:38:42;6.00;99.90
8537;DHT22;4306;50.210;10.628;2023-05-25T00:41:09;5.90;99.90
8537;DHT22;4306;50.210;10.628;2023-05-25T00:43:37;5.70;99.90
8537;DHT22;4306;50.210;10.628;2023-05-25T00:46:04;5.40;99.90
8537;DHT22;4306;50.210;10.628;2023-05-25T00:48:32;5.30;99.90
8537;DHT22;4306;50.210;10.628;2023-05-25T00:50:59;5.30;99.90
8537;DHT22;4306;50.210;10.628;2023-05-25T00:53:26;5.40;99.90
8537;DHT22;4306;50.210;10.628;2023-05-25T00:56:01;5.50;99.90
8537;DHT22;4306;50.210;10.628;2023-05-25T00:58:32;5.50;99.90
8537;DHT22;4306;50.210;10.628;2023-05-25T01:01:01;5.50;99.90
8537;DHT22;4306;50.210;10.628;2023-05-25T01:03:32;5.60;99.90
8537;DHT22;4306;50.210;10.628;2023-05-25T01:06:03;5.60;99.90
8537;DHT22;4306;50.210;10.628;2023-05-25T01:08:34;5.50;99.90
8537;DHT22;4306;50.210;10.628;2023-05-25T01:11:03;5.50;99.90
8537;DHT22;4306;50.210;10.628;2023-05-25T01:13:33;5.40;99.90
8537;DHT22;4306;50.210;10.628;2023-05-25T01:16:04;5.40;99.90
8537;DHT22;4306;50.210;10.628;2023-05-25T01:18:31;5.40;99.90
8537;DHT22;4306;50.210;10.628;2023-05-25T01:21:04;5.40;99.90
8537;DHT22;4306;50.210;10.628;2023-05-25T01:23:42;5.40;99.90
8537;DHT22;4306;50.210;10.628;2023-05-25T01:26:14;5.40;99.90
8537;DHT22;4306;50.210;10.628;2023-05-25T01:28:44;5.30;99.90
8537;DHT22;4306;50.210;10.628;2023-05-25T01:31:14;5.20;99.90
8537;DHT22;4306;50.210;10.628;2023-05-25T01:33:42;5.10;99.90
8537;DHT22;4306;50.210;10.628;2023-05-25T01:36:10;5.10;99.90
8537;DHT22;4306;50.210;10.628;2023-05-25T01:38:37;5.10;99.90
8537;DHT22;4306;50.210;10.628;2023-05-25T01:41:04;5.00;99.90
8537;DHT22;4306;50.210;10.628;2023-05-25T01:43:31;5.00;99.90
8537;DHT22;4306;50.210;10.628;2023-05-25T01:46:05;5.10;99.90
8537;DHT22;4306;50.210;10.628;2023-05-25T01:48:41;5.10;99.90
8537;DHT22;4306;50.210;10.628;2023-05-25T01:51:18;5.00;99.90
8537;DHT22;4306;50.210;10.628;2023-05-25T01:53:51;5.10;99.90
8537;DHT22;4306;50.210;10.628;2023-05-25T01:56:20;5.00;99.90
8537;DHT22;4306;50.210;10.628;2023-05-25T01:58:49;4.90;99.90
8537;DHT22;4306;50.210;10.628;2023-05-25T02:01:17;4.90;99.90
8537;DHT22;4306;50.210;10.628;2023-05-25T02:03:46;4.90;99.90
8537;DHT22;4306;50.210;10.628;2023-05-25T02:06:16;4.80;99.90
8537;DHT22;4306;50.210;10.628;2023-05-25T02:08:43;4.70;99.90
8537;DHT22;4306;50.210;10.628;2023-05-25T02:11:12;4.60;99.90
8537;DHT22;4306;50.210;10.628;2023-05-25T02:13:39;4.60;99.90
8537;DHT22;4306;50.210;10.628;2023-05-25T02:16:07;4.40;99.90
8537;DHT22;4306;50.210;10.628;2023-05-25T02:18:34;4.40;99.90
8537;DHT22;4306;50.210;10.628;2023-05-25T02:21:01;4.40;99.90
8537;DHT22;4306;50.210;10.628;2023-05-25T02:23:30;4.40;99.90
8537;DHT22;4306;50.210;10.628;2023-05-25T02:25:56;4.40;99.90
8537;DHT22;4306;50.210;10.628;2023-05-25T02:28:23;4.40;99.90
8537;DHT22;4306;50.210;10.628;2023-05-25T02:30:50;4.40;99.90
8537;DHT22;4306;50.210;10.628;2023-05-25T02:33:17;4.50;99.90
8537;DHT22;4306;50.210;10.628;2023-05-25T02:35:44;4.50;99.90
8537;DHT22;4306;50.210;10.628;2023-05-25T02:38:12;4.50;99.90
8537;DHT22;4306;50.210;10.628;2023-05-25T02:40:40;4.50;99.90
8537;DHT22;4306;50.210;10.628;2023-05-25T02:43:07;4.50;99.90
8537;DHT22;4306;50.210;10.628;2023-05-25T02:45:34;4.40;99.90
8537;DHT22;4306;50.210;10.628;2023-05-25T02:48:01;4.40;99.90
8537;DHT22;4306;50.210;10.628;2023-05-25T02:50:28;4.40;99.90
8537;DHT22;4306;50.210;10.628;2023-05-25T02:52:55;4.40;99.90
8537;DHT22;4306;50.210;10.628;2023-05-25T02:55:22;4.40;99.90
8537;DHT22;4306;50.210;10.628;2023-05-25T02:57:52;4.40;99.90
8537;DHT22;4306;50.210;10.628;2023-05-25T03:00:18;4.40;99.90
8537;DHT22;4306;50.210;10.628;2023-05-25T03:02:46;4.30;99.90
8537;DHT22;4306;50.210;10.628;2023-05-25T03:05:13;4.10;99.90
8537;DHT22;4306;50.210;10.628;2023-05-25T03:07:40;4.10;99.90
8537;DHT22;4306;50.210;10.628;2023-05-25T03:10:08;4.10;99.90
8537;DHT22;4306;50.210;10.628;2023-05-25T03:12:35;4.20;99.90
8537;DHT22;4306;50.210;10.628;2023-05-25T03:15:04;4.20;99.90
8537;DHT22;4306;50.210;10.628;2023-05-25T03:17:31;4.30;99.90
8537;DHT22;4306;50.210;10.628;2023-05-25T03:19:58;4.30;99.90
8537;DHT22;4306;50.210;10.628;2023-05-25T03:22:25;4.20;99.90
8537;DHT22;4306;50.210;10.628;2023-05-25T03:24:52;4.30;99.90
8537;DHT22;4306;50.210;10.628;2023-05-25T03:27:19;4.20;99.90
8537;DHT22;4306;50.210;10.628;2023-05-25T03:29:48;4.20;99.90
8537;DHT22;4306;50.210;10.628;2023-05-25T03:32:17;4.20;99.90
8537;DHT22;4306;50.210;10.628;2023-05-25T03:34:43;4.30;99.90
8537;DHT22;4306;50.210;10.628;2023-05-25T03:37:10;4.30;99.90
8537;DHT22;4306;50.210;10.628;2023-05-25T03:39:37;4.40;99.90
8537;DHT22;4306;50.210;10.628;2023-05-25T03:42:05;4.40;99.90
8537;DHT22;4306;50.210;10.628;2023-05-25T03:44:32;4.20;99.90
8537;DHT22;4306;50.210;10.628;2023-05-25T03:46:59;4.20;99.90
8537;DHT22;4306;50.210;10.628;2023-05-25T03:49:27;4.30;99.90
8537;DHT22;4306;50.210;10.628;2023-05-25T03:51:54;4.40;99.90
8537;DHT22;4306;50.210;10.628;2023-05-25T03:54:24;4.30;99.90
8537;DHT22;4306;50.210;10.628;2023-05-25T03:56:51;4.30;99.90
8537;DHT22;4306;50.210;10.628;2023-05-25T03:59:18;4.30;99.90
8537;DHT22;4306;50.210;10.628;2023-05-25T04:01:45;4.30;99.90
8537;DHT22;4306;50.210;10.628;2023-05-25T04:04:12;4.40;99.90
8537;DHT22;4306;50.210;10.628;2023-05-25T04:06:40;4.50;99.90
8537;DHT22;4306;50.210;10.628;2023-05-25T04:09:10;4.50;99.90
8537;DHT22;4306;50.210;10.628;2023-05-25T04:11:37;4.50;99.90
8537;DHT22;4306;50.210;10.628;2023-05-25T04:14:04;4.60;99.90
8537;DHT22;4306;50.210;10.628;2023-05-25T04:16:31;4.60;99.90
8537;DHT22;4306;50.210;10.628;2023-05-25T04:18:58;4.60;99.90
8537;DHT22;4306;50.210;10.628;2023-05-25T04:21:25;4.60;99.90
8537;DHT22;4306;50.210;10.628;2023-05-25T04:23:53;4.70;99.90
8537;DHT22;4306;50.210;10.628;2023-05-25T04:26:20;4.70;99.90
8537;DHT22;4306;50.210;10.628;2023-05-25T04:28:47;4.80;99.90
8537;DHT22;4306;50.210;10.628;2023-05-25T04:31:14;4.80;99.90
8537;DHT22;4306;50.210;10.628;2023-05-25T04:33:41;4.90;99.90
8537;DHT22;4306;50.210;10.628;2023-05-25T04:36:09;4.90;99.90
8537;DHT22;4306;50.210;10.628;2023-05-25T04:38:36;5.00;99.90
8537;DHT22;4306;50.210;10.628;2023-05-25T04:41:04;5.00;99.90
8537;DHT22;4306;50.210;10.628;2023-05-25T04:43:31;5.10;99.90
8537;DHT22;4306;50.210;10.628;2023-05-25T04:45:58;5.20;99.90
8537;DHT22;4306;50.210;10.628;2023-05-25T04:48:26;5.30;99.90
8537;DHT22;4306;50.210;10.628;2023-05-25T04:50:54;5.30;99.90
8537;DHT22;4306;50.210;10.628;2023-05-25T04:53:22;5.40;99.90
8537;DHT22;4306;50.210;10.628;2023-05-25T04:55:49;5.50;99.90
8537;DHT22;4306;50.210;10.628;2023-05-25T04:58:17;5.60;99.90
8537;DHT22;4306;50.210;10.628;2023-05-25T05:00:44;5.60;99.90
8537;DHT22;4306;50.210;10.628;2023-05-25T05:03:11;5.70;99.90
8537;DHT22;4306;50.210;10.628;2023-05-25T05:05:39;5.80;99.90
8537;DHT22;4306;50.210;10.628;2023-05-25T05:08:06;5.90;99.90
8537;DHT22;4306;50.210;10.628;2023-05-25T05:10:33;6.00;99.90
8537;DHT22;4306;50.210;10.628;2023-05-25T05:13:00;6.20;99.90
8537;DHT22;4306;50.210;10.628;2023-05-25T05:15:28;6.20;99.90
8537;DHT22;4306;50.210;10.628;2023-05-25T05:17:55;6.30;99.90
8537;DHT22;4306;50.210;10.628;2023-05-25T05:20:22;6.40;99.90
8537;DHT22;4306;50.210;10.628;2023-05-25T05:22:49;6.60;99.90
8537;DHT22;4306;50.210;10.628;2023-05-25T05:25:17;6.60;99.90
8537;DHT22;4306;50.210;10.628;2023-05-25T05:27:44;6.70;99.90
8537;DHT22;4306;50.210;10.628;2023-05-25T05:30:11;6.90;99.90
8537;DHT22;4306;50.210;10.628;2023-05-25T05:32:40;7.00;99.90
8537;DHT22;4306;50.210;10.628;2023-05-25T05:35:07;7.20;99.90
8537;DHT22;4306;50.210;10.628;2023-05-25T05:37:34;7.20;99.90
8537;DHT22;4306;50.210;10.628;2023-05-25T05:40:01;7.50;99.90
8537;DHT22;4306;50.210;10.628;2023-05-25T05:42:29;7.70;99.90
8537;DHT22;4306;50.210;10.628;2023-05-25T05:44:56;7.90;99.90
8537;DHT22;4306;50.210;10.628;2023-05-25T05:47:23;8.00;99.90
8537;DHT22;4306;50.210;10.628;2023-05-25T05:49:52;8.20;99.90
8537;DHT22;4306;50.210;10.628;2023-05-25T05:52:19;8.30;99.90
8537;DHT22;4306;50.210;10.628;2023-05-25T05:54:46;8.40;99.90
8537;DHT22;4306;50.210;10.628;2023-05-25T05:57:13;8.50;99.90
8537;DHT22;4306;50.210;10.628;2023-05-25T05:59:41;8.70;99.90
8537;DHT22;4306;50.210;10.628;2023-05-25T06:02:08;8.90;99.90
8537;DHT22;4306;50.210;10.628;2023-05-25T06:04:35;8.90;99.90
8537;DHT22;4306;50.210;10.628;2023-05-25T06:07:04;9.10;99.90
8537;DHT22;4306;50.210;10.628;2023-05-25T06:09:31;9.20;99.90
8537;DHT22;4306;50.210;10.628;2023-05-25T06:11:58;9.40;99.90
8537;DHT22;4306;50.210;10.628;2023-05-25T06:14:26;9.50;99.90
8537;DHT22;4306;50.210;10.628;2023-05-25T06:16:52;9.60;99.90
8537;DHT22;4306;50.210;10.628;2023-05-25T06:19:19;9.80;99.90
8537;DHT22;4306;50.210;10.628;2023-05-25T06:21:46;9.90;99.90
8537;DHT22;4306;50.210;10.628;2023-05-25T06:24:15;10.00;99.90
8537;DHT22;4306;50.210;10.628;2023-05-25T06:26:42;10.10;99.90
8537;DHT22;4306;50.210;10.628;2023-05-25T06:29:09;10.20;99.90
8537;DHT22;4306;50.210;10.628;2023-05-25T06:31:36;10.30;99.90
8537;DHT22;4306;50.210;10.628;2023-05-25T06:34:03;10.30;99.90
8537;DHT22;4306;50.210;10.628;2023-05-25T06:36:30;10.40;99.90
8537;DHT22;4306;50.210;10.628;2023-05-25T06:38:57;10.50;99.90
8537;DHT22;4306;50.210;10.628;2023-05-25T06:41:25;10.60;99.90
8537;DHT22;4306;50.210;10.628;2023-05-25T06:43:52;10.70;99.90
8537;DHT22;4306;50.210;10.628;2023-05-25T06:46:19;10.80;99.90
8537;DHT22;4306;50.210;10.628;2023-05-25T06:48:46;10.90;99.90
8537;DHT22;4306;50.210;10.628;2023-05-25T06:51:13;11.00;99.90
8537;DHT22;4306;50.210;10.628;2023-05-25T06:53:40;11.10;99.90
8537;DHT22;4306;50.210;10.628;2023-05-25T06:56:08;11.30;99.90
8537;DHT22;4306;50.210;10.628;2023-05-25T06:58:36;11.40;99.90
8537;DHT22;4306;50.210;10.628;2023-05-25T07:01:03;11.50;99.90
8537;DHT22;4306;50.210;10.628;2023-05-25T07:03:30;11.50;99.90
8537;DHT22;4306;50.210;10.628;2023-05-25T07:05:57;11.60;99.90
8537;DHT22;4306;50.210;10.628;2023-05-25T07:08:24;11.70;99.90
8537;DHT22;4306;50.210;10.628;2023-05-25T07:10:51;11.80;99.90
8537;DHT22;4306;50.210;10.628;2023-05-25T07:13:18;11.90;99.90
8537;DHT22;4306;50.210;10.628;2023-05-25T07:15:46;12.10;99.90
8537;DHT22;4306;50.210;10.628;2023-05-25T07:18:13;12.20;99.90
8537;DHT22;4306;50.210;10.628;2023-05-25T07:20:40;12.30;99.90
8537;DHT22;4306;50.210;10.628;2023-05-25T07:23:08;12.40;99.90
8537;DHT22;4306;50.210;10.628;2023-05-25T07:25:36;12.50;99.90
8537;DHT22;4306;50.210;10.628;2023-05-25T07:28:03;12.60;99.90
8537;DHT22;4306;50.210;10.628;2023-05-25T07:30:30;12.70;99.90
8537;DHT22;4306;50.210;10.628;2023-05-25T07:32:59;12.80;99.90
8537;DHT22;4306;50.210;10.628;2023-05-25T07:35:26;12.90;99.90
8537;DHT22;4306;50.210;10.628;2023-05-25T07:37:57;13.00;99.90
8537;DHT22;4306;50.210;10.628;2023-05-25T07:40:24;13.00;99.90
8537;DHT22;4306;50.210;10.628;2023-05-25T07:42:51;13.00;99.90
8537;DHT22;4306;50.210;10.628;2023-05-25T07:45:18;13.10;99.90
8537;DHT22;4306;50.210;10.628;2023-05-25T07:47:45;13.30;99.90
8537;DHT22;4306;50.210;10.628;2023-05-25T07:50:14;13.40;99.90
8537;DHT22;4306;50.210;10.628;2023-05-25T07:52:41;13.50;99.90
8537;DHT22;4306;50.210;10.628;2023-05-25T07:55:08;13.60;99.90
8537;DHT22;4306;50.210;10.628;2023-05-25T07:57:35;13.60;99.90
8537;DHT22;4306;50.210;10.628;2023-05-25T08:00:04;13.70;99.90
8537;DHT22;4306;50.210;10.628;2023-05-25T08:02:32;13.80;99.90
8537;DHT22;4306;50.210;10.628;2023-05-25T08:04:59;13.90;99.90
8537;DHT22;4306;50.210;10.628;2023-05-25T08:07:31;13.90;99.90
8537;DHT22;4306;50.210;10.628;2023-05-25T08:09:58;14.00;99.90
8537;DHT22;4306;50.210;10.628;2023-05-25T08:12:25;14.10;99.90
8537;DHT22;4306;50.210;10.628;2023-05-25T08:14:52;14.20;99.90
8537;DHT22;4306;50.210;10.628;2023-05-25T08:17:19;14.30;99.90
8537;DHT22;4306;50.210;10.628;2023-05-25T08:19:47;14.30;99.90
8537;DHT22;4306;50.210;10.628;2023-05-25T08:22:14;14.40;99.90
8537;DHT22;4306;50.210;10.628;2023-05-25T08:24:42;14.40;99.90
8537;DHT22;4306;50.210;10.628;2023-05-25T08:27:09;14.60;99.90
8537;DHT22;4306;50.210;10.628;2023-05-25T08:29:36;14.60;99.80
8537;DHT22;4306;50.210;10.628;2023-05-25T08:32:03;14.80;99.60
8537;DHT22;4306;50.210;10.628;2023-05-25T08:34:30;14.70;98.40
8537;DHT22;4306;50.210;10.628;2023-05-25T08:36:57;14.70;99.10
8537;DHT22;4306;50.210;10.628;2023-05-25T08:39:24;14.90;98.60
8537;DHT22;4306;50.210;10.628;2023-05-25T08:41:53;14.90;98.50
8537;DHT22;4306;50.210;10.628;2023-05-25T08:44:20;14.90;98.20
8537;DHT22;4306;50.210;10.628;2023-05-25T08:46:47;15.10;97.60
8537;DHT22;4306;50.210;10.628;2023-05-25T08:49:15;15.20;96.30
8537;DHT22;4306;50.210;10.628;2023-05-25T08:51:45;15.30;96.90
8537;DHT22;4306;50.210;10.628;2023-05-25T08:54:19;15.30;96.60
8537;DHT22;4306;50.210;10.628;2023-05-25T08:56:49;15.40;97.00
8537;DHT22;4306;50.210;10.628;2023-05-25T08:59:27;15.50;97.20
8537;DHT22;4306;50.210;10.628;2023-05-25T09:02:13;15.60;95.50
8537;DHT22;4306;50.210;10.628;2023-05-25T09:04:42;15.60;95.90
8537;DHT22;4306;50.210;10.628;2023-05-25T09:07:09;15.70;95.50
8537;DHT22;4306;50.210;10.628;2023-05-25T09:09:37;15.80;93.70
8537;DHT22;4306;50.210;10.628;2023-05-25T09:12:05;15.90;94.00
8537;DHT22;4306;50.210;10.628;2023-05-25T09:14:34;16.00;94.40
8537;DHT22;4306;50.210;10.628;2023-05-25T09:17:02;16.00;93.70
8537;DHT22;4306;50.210;10.628;2023-05-25T09:19:29;16.10;93.00
8537;DHT22;4306;50.210;10.628;2023-05-25T09:21:56;16.20;93.60
8537;DHT22;4306;50.210;10.628;2023-05-25T09:24:23;16.20;94.30
8537;DHT22;4306;50.210;10.628;2023-05-25T09:26:50;16.20;94.00
8537;DHT22;4306;50.210;10.628;2023-05-25T09:29:17;16.30;94.20
8537;DHT22;4306;50.210;10.628;2023-05-25T09:31:46;16.30;93.00
8537;DHT22;4306;50.210;10.628;2023-05-25T09:34:13;16.40;93.10
8537;DHT22;4306;50.210;10.628;2023-05-25T09:36:41;16.40;93.00
8537;DHT22;4306;50.210;10.628;2023-05-25T09:39:09;16.50;93.30
8537;DHT22;4306;50.210;10.628;2023-05-25T09:41:36;16.60;92.60
8537;DHT22;4306;50.210;10.628;2023-05-25T09:44:03;16.60;92.80
8537;DHT22;4306;50.210;10.628;2023-05-25T09:46:30;16.80;92.80
8537;DHT22;4306;50.210;10.628;2023-05-25T09:49:03;16.80;92.40
8537;DHT22;4306;50.210;10.628;2023-05-25T09:51:30;16.80;92.20
8537;DHT22;4306;50.210;10.628;2023-05-25T09:53:58;17.00;92.80
8537;DHT22;4306;50.210;10.628;2023-05-25T09:56:26;17.10;91.40
8537;DHT22;4306;50.210;10.628;2023-05-25T09:58:53;17.10;91.60
8537;DHT22;4306;50.210;10.628;2023-05-25T10:01:22;17.20;92.00
8537;DHT22;4306;50.210;10.628;2023-05-25T10:03:49;17.10;91.50
8537;DHT22;4306;50.210;10.628;2023-05-25T10:06:19;17.20;91.60
8537;DHT22;4306;50.210;10.628;2023-05-25T10:08:46;17.10;91.20
8537;DHT22;4306;50.210;10.628;2023-05-25T10:11:15;17.30;91.60
8537;DHT22;4306;50.210;10.628;2023-05-25T10:13:44;17.40;91.30
8537;DHT22;4306;50.210;10.628;2023-05-25T10:16:14;17.50;91.20
8537;DHT22;4306;50.210;10.628;2023-05-25T10:18:46;17.60;90.80
8537;DHT22;4306;50.210;10.628;2023-05-25T10:21:15;17.60;90.50
8537;DHT22;4306;50.210;10.628;2023-05-25T10:23:47;17.70;91.10
8537;DHT22;4306;50.210;10.628;2023-05-25T10:26:18;17.70;90.80
8537;DHT22;4306;50.210;10.628;2023-05-25T10:28:48;17.80;90.90
8537;DHT22;4306;50.210;10.628;2023-05-25T10:31:17;17.70;90.40
8537;DHT22;4306;50.210;10.628;2023-05-25T10:33:45;17.80;91.60
8537;DHT22;4306;50.210;10.628;2023-05-25T10:36:13;17.90;90.80
8537;DHT22;4306;50.210;10.628;2023-05-25T10:38:42;17.90;90.20
8537;DHT22;4306;50.210;10.628;2023-05-25T10:41:11;18.00;90.10
8537;DHT22;4306;50.210;10.628;2023-05-25T10:43:40;18.10;90.80
8537;DHT22;4306;50.210;10.628;2023-05-25T10:46:08;18.20;90.40
8537;DHT22;4306;50.210;10.628;2023-05-25T10:48:37;18.30;89.90
8537;DHT22;4306;50.210;10.628;2023-05-25T10:51:05;18.30;88.60
8537;DHT22;4306;50.210;10.628;2023-05-25T10:53:32;18.20;88.40
8537;DHT22;4306;50.210;10.628;2023-05-25T10:56:03;18.20;88.60
8537;DHT22;4306;50.210;10.628;2023-05-25T10:58:32;18.30;87.20
8537;DHT22;4306;50.210;10.628;2023-05-25T11:01:00;18.20;87.00
8537;DHT22;4306;50.210;10.628;2023-05-25T11:03:47;18.40;89.70
8537;DHT22;4306;50.210;10.628;2023-05-25T11:06:15;18.70;89.00
8537;DHT22;4306;50.210;10.628;2023-05-25T11:08:50;18.80;87.60
8537;DHT22;4306;50.210;10.628;2023-05-25T11:11:17;19.00;87.80
8537;DHT22;4306;50.210;10.628;2023-05-25T11:13:46;18.90;85.70
8537;DHT22;4306;50.210;10.628;2023-05-25T11:16:15;18.60;86.40
8537;DHT22;4306;50.210;10.628;2023-05-25T11:18:44;18.70;84.50
8537;DHT22;4306;50.210;10.628;2023-05-25T11:21:16;18.60;84.90
8537;DHT22;4306;50.210;10.628;2023-05-25T11:23:53;18.70;85.30
8537;DHT22;4306;50.210;10.628;2023-05-25T11:26:21;18.80;84.50
8537;DHT22;4306;50.210;10.628;2023-05-25T11:28:51;18.90;85.50
8537;DHT22;4306;50.210;10.628;2023-05-25T11:31:20;19.00;82.70
8537;DHT22;4306;50.210;10.628;2023-05-25T11:33:49;18.90;83.00
8537;DHT22;4306;50.210;10.628;2023-05-25T11:36:23;19.10;82.60
8537;DHT22;4306;50.210;10.628;2023-05-25T11:38:51;19.20;83.80
8537;DHT22;4306;50.210;10.628;2023-05-25T11:41:19;18.90;81.70
8537;DHT22;4306;50.210;10.628;2023-05-25T11:43:47;19.00;82.00
8537;DHT22;4306;50.210;10.628;2023-05-25T11:46:16;19.20;82.30
8537;DHT22;4306;50.210;10.628;2023-05-25T11:48:48;19.40;84.00
8537;DHT22;4306;50.210;10.628;2023-05-25T11:51:17;19.40;82.20
8537;DHT22;4306;50.210;10.628;2023-05-25T11:53:44;19.40;83.60
8537;DHT22;4306;50.210;10.628;2023-05-25T11:56:12;19.40;83.80
8537;DHT22;4306;50.210;10.628;2023-05-25T11:58:40;19.50;82.40
8537;DHT22;4306;50.210;10.628;2023-05-25T12:01:17;19.40;80.50
8537;DHT22;4306;50.210;10.628;2023-05-25T12:03:45;19.60;80.70
8537;DHT22;4306;50.210;10.628;2023-05-25T12:06:25;19.50;80.30
8537;DHT22;4306;50.210;10.628;2023-05-25T12:08:52;19.60;79.80
8537;DHT22;4306;50.210;10.628;2023-05-25T12:11:27;19.70;78.90
8537;DHT22;4306;50.210;10.628;2023-05-25T12:13:54;19.70;79.20
8537;DHT22;4306;50.210;10.628;2023-05-25T12:16:22;19.70;80.80
8537;DHT22;4306;50.210;10.628;2023-05-25T12:18:50;19.90;81.40
8537;DHT22;4306;50.210;10.628;2023-05-25T12:21:18;20.10;83.80
8537;DHT22;4306;50.210;10.628;2023-05-25T12:23:46;20.20;80.40
8537;DHT22;4306;50.210;10.628;2023-05-25T12:26:18;20.30;80.40
8537;DHT22;4306;50.210;10.628;2023-05-25T12:28:58;20.30;79.50
8537;DHT22;4306;50.210;10.628;2023-05-25T12:31:28;20.00;79.20
8537;DHT22;4306;50.210;10.628;2023-05-25T12:34:06;20.00;79.50
8537;DHT22;4306;50.210;10.628;2023-05-25T12:36:38;20.00;79.60
8537;DHT22;4306;50.210;10.628;2023-05-25T12:39:05;20.10;78.60
8537;DHT22;4306;50.210;10.628;2023-05-25T12:41:42;20.10;81.20
8537;DHT22;4306;50.210;10.628;2023-05-25T12:44:19;20.20;80.00
8537;DHT22;4306;50.210;10.628;2023-05-25T12:46:49;20.40;81.50
8537;DHT22;4306;50.210;10.628;2023-05-25T12:49:27;20.40;79.10
8537;DHT22;4306;50.210;10.628;2023-05-25T12:51:55;20.30;78.80
8537;DHT22;4306;50.210;10.628;2023-05-25T12:54:40;20.30;79.00
8537;DHT22;4306;50.210;10.628;2023-05-25T12:57:10;20.60;80.10
8537;DHT22;4306;50.210;10.628;2023-05-25T12:59:37;20.40;77.40
8537;DHT22;4306;50.210;10.628;2023-05-25T13:02:07;20.50;78.90
8537;DHT22;4306;50.210;10.628;2023-05-25T13:04:34;20.40;76.80
8537;DHT22;4306;50.210;10.628;2023-05-25T13:07:02;20.40;77.30
8537;DHT22;4306;50.210;10.628;2023-05-25T13:09:29;20.50;78.30
8537;DHT22;4306;50.210;10.628;2023-05-25T13:11:57;20.60;77.10
8537;DHT22;4306;50.210;10.628;2023-05-25T13:14:25;20.80;76.80
8537;DHT22;4306;50.210;10.628;2023-05-25T13:16:53;20.60;76.10
8537;DHT22;4306;50.210;10.628;2023-05-25T13:19:24;20.70;75.70
8537;DHT22;4306;50.210;10.628;2023-05-25T13:21:51;20.80;77.70
8537;DHT22;4306;50.210;10.628;2023-05-25T13:24:20;20.90;75.50
8537;DHT22;4306;50.210;10.628;2023-05-25T13:26:47;20.90;75.40
8537;DHT22;4306;50.210;10.628;2023-05-25T13:29:15;20.80;74.70
8537;DHT22;4306;50.210;10.628;2023-05-25T13:31:41;20.90;73.10
8537;DHT22;4306;50.210;10.628;2023-05-25T13:34:08;20.90;74.00
8537;DHT22;4306;50.210;10.628;2023-05-25T13:36:37;20.90;72.50
8537;DHT22;4306;50.210;10.628;2023-05-25T13:39:04;21.00;72.30
8537;DHT22;4306;50.210;10.628;2023-05-25T13:41:32;21.00;70.90
8537;DHT22;4306;50.210;10.628;2023-05-25T13:43:59;21.10;73.30
8537;DHT22;4306;50.210;10.628;2023-05-25T13:46:25;21.40;71.60
8537;DHT22;4306;50.210;10.628;2023-05-25T13:48:52;21.40;71.10
8537;DHT22;4306;50.210;10.628;2023-05-25T13:51:20;21.40;71.80
8537;DHT22;4306;50.210;10.628;2023-05-25T13:53:49;21.30;72.30
8537;DHT22;4306;50.210;10.628;2023-05-25T13:56:16;21.30;71.40
8537;DHT22;4306;50.210;10.628;2023-05-25T13:58:43;21.50;71.50
8537;DHT22;4306;50.210;10.628;2023-05-25T14:01:10;21.60;70.00
8537;DHT22;4306;50.210;10.628;2023-05-25T14:03:37;21.60;69.40
8537;DHT22;4306;50.210;10.628;2023-05-25T14:06:04;21.50;68.60
8537;DHT22;4306;50.210;10.628;2023-05-25T14:08:31;21.30;67.00
8537;DHT22;4306;50.210;10.628;2023-05-25T14:11:00;21.50;67.90
8537;DHT22;4306;50.210;10.628;2023-05-25T14:13:26;21.50;67.30
8537;DHT22;4306;50.210;10.628;2023-05-25T14:15:53;21.60;66.60
8537;DHT22;4306;50.210;10.628;2023-05-25T14:18:20;21.30;66.70
8537;DHT22;4306;50.210;10.628;2023-05-25T14:20:47;21.40;65.80
8537;DHT22;4306;50.210;10.628;2023-05-25T14:23:14;21.20;64.30
8537;DHT22;4306;50.210;10.628;2023-05-25T14:25:43;21.20;64.30
8537;DHT22;4306;50.210;10.628;2023-05-25T14:28:12;21.40;65.60
8537;DHT22;4306;50.210;10.628;2023-05-25T14:30:39;21.60;65.50
8537;DHT22;4306;50.210;10.628;2023-05-25T14:33:06;21.50;65.80
8537;DHT22;4306;50.210;10.628;2023-05-25T14:35:38;21.60;65.70
8537;DHT22;4306;50.210;10.628;2023-05-25T14:38:05;21.70;65.10
8537;DHT22;4306;50.210;10.628;2023-05-25T14:40:32;21.90;65.50
8537;DHT22;4306;50.210;10.628;2023-05-25T14:42:59;21.70;63.20
8537;DHT22;4306;50.210;10.628;2023-05-25T14:45:27;21.60;63.90
8537;DHT22;4306;50.210;10.628;2023-05-25T14:47:54;21.70;62.80
8537;DHT22;4306;50.210;10.628;2023-05-25T14:50:21;21.70;62.30
8537;DHT22;4306;50.210;10.628;2023-05-25T14:53:21;21.90;61.60
8537;DHT22;4306;50.210;10.628;2023-05-25T14:56:00;21.60;61.90
8537;DHT22;4306;50.210;10.628;2023-05-25T14:58:28;22.00;64.60
8537;DHT22;4306;50.210;10.628;2023-05-25T15:00:58;22.00;60.40
8537;DHT22;4306;50.210;10.628;2023-05-25T15:03:25;22.10;61.00
8537;DHT22;4306;50.210;10.628;2023-05-25T15:09:16;22.10;62.00
8537;DHT22;4306;50.210;10.628;2023-05-25T15:11:44;22.20;59.00
8537;DHT22;4306;50.210;10.628;2023-05-25T15:14:10;21.80;58.90
8537;DHT22;4306;50.210;10.628;2023-05-25T15:16:39;22.00;59.70
8537;DHT22;4306;50.210;10.628;2023-05-25T15:19:06;22.00;58.80
8537;DHT22;4306;50.210;10.628;2023-05-25T15:21:33;22.10;61.40
8537;DHT22;4306;50.210;10.628;2023-05-25T15:24:01;21.90;60.60
8537;DHT22;4306;50.210;10.628;2023-05-25T15:26:28;22.10;60.90
8537;DHT22;4306;50.210;10.628;2023-05-25T15:28:55;22.20;61.60
8537;DHT22;4306;50.210;10.628;2023-05-25T15:31:22;22.00;60.10
8537;DHT22;4306;50.210;10.628;2023-05-25T15:33:50;21.80;59.10
8537;DHT22;4306;50.210;10.628;2023-05-25T15:36:17;21.70;59.80
8537;DHT22;4306;50.210;10.628;2023-05-25T15:38:44;21.70;61.10
8537;DHT22;4306;50.210;10.628;2023-05-25T15:41:14;21.70;60.20
8537;DHT22;4306;50.210;10.628;2023-05-25T15:43:41;21.60;58.90
8537;DHT22;4306;50.210;10.628;2023-05-25T15:46:10;21.80;59.80
8537;DHT22;4306;50.210;10.628;2023-05-25T15:48:37;21.80;59.70
8537;DHT22;4306;50.210;10.628;2023-05-25T15:51:05;21.80;58.70
8537;DHT22;4306;50.210;10.628;2023-05-25T15:53:32;21.70;57.20
8537;DHT22;4306;50.210;10.628;2023-05-25T15:55:59;21.80;58.70
8537;DHT22;4306;50.210;10.628;2023-05-25T15:58:26;21.70;58.40
8537;DHT22;4306;50.210;10.628;2023-05-25T16:00:52;21.80;59.20
8537;DHT22;4306;50.210;10.628;2023-05-25T16:03:19;21.70;58.80